Time;durP1;ratioP1;P1;durP2;ratioP2;P2;SDS_P1;SDS_P2;PMS_P1;PMS_P2;Temp;Humidity;BMP_temperature;BMP_pressure;BME280_temperature;BME280_humidity;BME280_pressure;Samples;Min_cycle;Max_cycle;Signal;HPM_P1;HPM_P2
2023/07/19 00:00:07;;;;;;;1.80;1.50;;;17.60;99.90;;;;;;4992109;28;20785;-73
2023/07/19 00:02:32;;;;;;;3.63;2.07;;;17.50;99.90;;;;;;4991898;28;20193;-72
2023/07/19 00:04:58;;;;;;;1.77;1.57;;;17.50;99.90;;;;;;4992326;28;20467;-73
2023/07/19 00:07:23;;;;;;;2.23;1.70;;;17.40;99.90;;;;;;4991751;28;20219;-72
2023/07/19 00:09:49;;;;;;;2.47;1.73;;;17.40;99.90;;;;;;4991974;28;20189;-72
2023/07/19 00:12:14;;;;;;;2.10;1.60;;;17.30;99.90;;;;;;4992055;28;20192;-73
2023/07/19 00:14:40;;;;;;;2.00;1.27;;;17.30;99.90;;;;;;4993038;28;20169;-73
2023/07/19 00:17:06;;;;;;;2.50;1.47;;;17.30;99.90;;;;;;4995297;28;20208;-72
2023/07/19 00:19:31;;;;;;;3.80;1.80;;;17.20;99.90;;;;;;4995333;28;20188;-72
2023/07/19 00:21:57;;;;;;;2.70;1.90;;;17.20;99.90;;;;;;4995244;28;20200;-73
2023/07/19 00:24:22;;;;;;;2.27;1.50;;;17.10;99.90;;;;;;4995403;28;20176;-73
2023/07/19 00:26:49;;;;;;;2.23;1.40;;;17.10;99.90;;;;;;4995019;28;20239;-72
2023/07/19 00:29:14;;;;;;;2.13;1.80;;;17.10;99.90;;;;;;4993991;28;20243;-72
2023/07/19 00:31:40;;;;;;;3.40;2.23;;;17.10;99.90;;;;;;4995226;28;20443;-72
2023/07/19 00:34:06;;;;;;;3.43;2.13;;;17.10;99.90;;;;;;4995247;28;20561;-72
2023/07/19 00:36:31;;;;;;;2.57;1.80;;;17.00;99.90;;;;;;4994708;28;20542;-73
2023/07/19 00:38:57;;;;;;;2.13;1.30;;;17.00;99.90;;;;;;4995053;28;20558;-73
2023/07/19 00:41:22;;;;;;;2.77;1.90;;;16.90;99.90;;;;;;4994930;28;20204;-73
2023/07/19 00:43:48;;;;;;;1.83;1.30;;;16.90;99.90;;;;;;4995093;28;20184;-73
2023/07/19 00:46:13;;;;;;;4.03;1.80;;;16.80;99.90;;;;;;4994689;28;20166;-73
2023/07/19 00:48:40;;;;;;;5.23;1.70;;;16.80;99.90;;;;;;4994616;28;20224;-73
2023/07/19 00:51:06;;;;;;;2.27;1.87;;;16.80;99.90;;;;;;4994838;28;20180;-73
2023/07/19 00:53:32;;;;;;;3.70;1.57;;;16.80;99.90;;;;;;4994711;28;20817;-73
2023/07/19 00:55:58;;;;;;;3.27;2.50;;;16.70;99.90;;;;;;4994583;28;20583;-73
2023/07/19 00:58:24;;;;;;;2.30;1.63;;;16.70;99.90;;;;;;4994698;28;20420;-74
2023/07/19 01:00:50;;;;;;;2.00;1.40;;;16.60;99.90;;;;;;4994714;28;20157;-73
2023/07/19 01:03:16;;;;;;;2.47;1.60;;;16.60;99.90;;;;;;4993303;28;20935;-72
2023/07/19 01:05:43;;;;;;;3.03;2.10;;;16.40;99.90;;;;;;4994246;28;20515;-73
2023/07/19 01:08:08;;;;;;;3.80;1.50;;;16.20;99.90;;;;;;4994324;28;20258;-72
2023/07/19 01:10:34;;;;;;;3.23;1.87;;;16.00;99.90;;;;;;4994556;28;20903;-73
2023/07/19 01:13:08;;;;;;;8.90;2.20;;;16.00;99.90;;;;;;4994262;28;20227;-73
2023/07/19 01:15:34;;;;;;;3.03;2.10;;;16.00;99.90;;;;;;4994255;28;20417;-72
2023/07/19 01:18:00;;;;;;;1.60;1.47;;;15.90;99.90;;;;;;4994159;28;20471;-73
2023/07/19 01:20:25;;;;;;;4.20;2.40;;;15.90;99.90;;;;;;4994330;28;20768;-72
2023/07/19 01:22:51;;;;;;;2.90;2.00;;;15.90;99.90;;;;;;4994095;28;20207;-72
2023/07/19 01:25:16;;;;;;;5.33;1.87;;;15.80;99.90;;;;;;4993662;28;20260;-73
2023/07/19 01:27:42;;;;;;;2.40;1.80;;;15.80;99.90;;;;;;4993245;28;20169;-74
2023/07/19 01:30:08;;;;;;;2.40;1.70;;;15.80;99.90;;;;;;4992917;28;20201;-73
2023/07/19 01:32:33;;;;;;;3.07;1.93;;;15.90;99.90;;;;;;4994122;28;20252;-73
2023/07/19 01:34:59;;;;;;;3.33;2.30;;;15.90;99.90;;;;;;4993838;28;20412;-73
2023/07/19 01:37:26;;;;;;;3.33;2.40;;;15.90;99.90;;;;;;4994016;28;20176;-73
2023/07/19 01:39:52;;;;;;;2.37;1.43;;;16.00;99.90;;;;;;4993900;28;20208;-73
2023/07/19 01:42:17;;;;;;;3.90;1.87;;;16.00;99.90;;;;;;4993925;28;20444;-72
2023/07/19 01:44:43;;;;;;;4.70;2.10;;;16.00;99.90;;;;;;4993878;28;20694;-73
2023/07/19 01:47:08;;;;;;;2.80;1.90;;;16.00;99.90;;;;;;4993653;28;20205;-73
2023/07/19 01:49:34;;;;;;;2.77;2.47;;;16.00;99.90;;;;;;4993641;28;20632;-73
2023/07/19 01:52:00;;;;;;;2.90;2.17;;;16.00;99.90;;;;;;4993730;28;20688;-72
2023/07/19 01:54:25;;;;;;;7.90;2.53;;;16.10;99.90;;;;;;4993557;28;20200;-73
2023/07/19 01:56:51;;;;;;;4.30;1.93;;;16.00;99.90;;;;;;4993394;28;20253;-73
2023/07/19 01:59:17;;;;;;;4.00;2.60;;;16.00;99.90;;;;;;4993553;28;20200;-73
2023/07/19 02:01:43;;;;;;;4.23;2.10;;;16.00;99.90;;;;;;4993524;28;20969;-73
2023/07/19 02:04:09;;;;;;;2.00;1.60;;;16.00;99.90;;;;;;4993391;28;20165;-73
2023/07/19 02:06:34;;;;;;;2.70;1.57;;;16.00;99.90;;;;;;4993048;28;20427;-72
2023/07/19 02:09:00;;;;;;;2.93;2.03;;;15.90;99.90;;;;;;4993290;28;20443;-72
2023/07/19 02:11:25;;;;;;;3.47;2.70;;;15.90;99.90;;;;;;4993097;28;20181;-73
2023/07/19 02:13:51;;;;;;;2.87;2.17;;;15.90;99.90;;;;;;4993276;28;20299;-73
2023/07/19 02:16:16;;;;;;;3.10;1.90;;;15.90;99.90;;;;;;4993072;28;20181;-73
2023/07/19 02:18:42;;;;;;;2.90;2.03;;;15.90;99.90;;;;;;4993203;28;20212;-72
2023/07/19 02:21:07;;;;;;;4.90;2.70;;;15.80;99.90;;;;;;4993092;28;20546;-73
2023/07/19 02:23:33;;;;;;;2.60;2.40;;;15.90;99.90;;;;;;4993244;28;20169;-72
2023/07/19 02:25:59;;;;;;;2.10;1.87;;;15.90;99.90;;;;;;4992871;28;20169;-72
2023/07/19 02:28:24;;;;;;;5.07;2.20;;;15.90;99.90;;;;;;4993065;28;20193;-72
2023/07/19 02:30:50;;;;;;;2.43;1.93;;;15.90;99.90;;;;;;4993076;28;20177;-73
2023/07/19 02:33:15;;;;;;;2.70;2.27;;;16.00;99.90;;;;;;4993034;28;20391;-72
2023/07/19 02:35:41;;;;;;;13.00;3.60;;;16.00;99.90;;;;;;4992760;28;20180;-72
2023/07/19 02:38:07;;;;;;;4.13;2.20;;;16.10;99.90;;;;;;4992615;28;20188;-73
2023/07/19 02:40:33;;;;;;;3.60;1.83;;;16.00;99.90;;;;;;4993031;28;20169;-73
2023/07/19 02:42:58;;;;;;;2.50;2.13;;;16.10;99.90;;;;;;4992594;28;20223;-73
2023/07/19 02:45:27;;;;;;;3.20;2.20;;;16.10;99.90;;;;;;4992618;28;20169;-72
2023/07/19 02:47:52;;;;;;;6.00;2.20;;;16.20;99.90;;;;;;4992683;28;20238;-73
2023/07/19 02:50:19;;;;;;;2.33;2.03;;;16.20;99.90;;;;;;4992867;28;20496;-73
2023/07/19 02:52:45;;;;;;;3.40;2.40;;;16.30;99.90;;;;;;4992742;28;20169;-73
2023/07/19 02:55:10;;;;;;;3.97;1.97;;;16.30;99.90;;;;;;4992457;28;20416;-72
2023/07/19 02:57:36;;;;;;;1.93;1.47;;;16.30;99.90;;;;;;4992729;28;20169;-72
2023/07/19 03:00:02;;;;;;;6.83;2.33;;;16.40;99.90;;;;;;4992688;28;20200;-72
2023/07/19 03:02:28;;;;;;;5.90;2.43;;;16.40;99.90;;;;;;4992642;28;20220;-73
2023/07/19 03:04:55;;;;;;;3.10;2.07;;;16.40;99.90;;;;;;4992336;28;20408;-74
2023/07/19 03:07:21;;;;;;;5.33;1.67;;;16.50;99.90;;;;;;4992239;28;20179;-73
2023/07/19 03:09:47;;;;;;;3.17;2.53;;;16.50;99.90;;;;;;4992383;28;20420;-73
2023/07/19 03:12:12;;;;;;;2.93;1.73;;;16.60;99.90;;;;;;4992621;28;20404;-73
2023/07/19 03:14:38;;;;;;;1.90;1.80;;;16.60;99.90;;;;;;4992491;28;20634;-73
2023/07/19 03:17:04;;;;;;;2.67;2.27;;;16.60;99.90;;;;;;4992314;28;20169;-72
2023/07/19 03:19:29;;;;;;;4.03;1.90;;;16.70;99.90;;;;;;4992399;28;20196;-73
2023/07/19 03:21:55;;;;;;;2.47;1.50;;;16.70;99.90;;;;;;4991331;28;20196;-73
2023/07/19 03:24:20;;;;;;;3.77;2.23;;;16.70;99.90;;;;;;4992461;28;20169;-72
2023/07/19 03:26:46;;;;;;;6.37;2.37;;;16.70;99.90;;;;;;4992239;28;20541;-72
2023/07/19 03:29:11;;;;;;;2.77;2.20;;;16.80;99.90;;;;;;4992313;28;20181;-72
2023/07/19 03:31:37;;;;;;;5.93;2.00;;;16.80;99.90;;;;;;4992404;28;20180;-72
2023/07/19 03:34:02;;;;;;;4.43;2.30;;;16.80;99.90;;;;;;4992357;28;20547;-73
2023/07/19 03:36:28;;;;;;;2.10;1.80;;;16.80;99.90;;;;;;4992128;28;20169;-73
2023/07/19 03:38:54;;;;;;;2.87;2.00;;;16.70;99.90;;;;;;4992217;28;20613;-73
2023/07/19 03:41:19;;;;;;;3.70;2.30;;;16.70;99.90;;;;;;4992259;28;20169;-74
2023/07/19 03:43:45;;;;;;;3.97;2.77;;;16.70;99.90;;;;;;4992266;28;20442;-72
2023/07/19 03:46:10;;;;;;;3.60;1.97;;;16.70;99.90;;;;;;4992008;28;20639;-73
2023/07/19 03:48:37;;;;;;;3.10;1.80;;;16.70;99.90;;;;;;4992165;28;20678;-73
2023/07/19 03:51:03;;;;;;;2.60;1.97;;;16.80;99.90;;;;;;4995409;28;20169;-72
2023/07/19 03:53:29;;;;;;;1.90;1.70;;;16.80;99.90;;;;;;4995869;28;20416;-73
2023/07/19 03:55:55;;;;;;;4.73;2.03;;;16.90;99.90;;;;;;4994623;28;20601;-73
2023/07/19 03:58:24;;;;;;;7.50;2.80;;;16.90;99.90;;;;;;4995506;28;20494;-72
2023/07/19 04:00:58;;;;;;;2.10;1.80;;;17.00;99.90;;;;;;4995835;28;20415;-72
2023/07/19 04:03:25;;;;;;;2.90;2.20;;;17.10;99.90;;;;;;4995047;28;20542;-74
2023/07/19 04:05:51;;;;;;;2.50;2.00;;;17.20;99.90;;;;;;4995324;28;20803;-73
2023/07/19 04:08:17;;;;;;;2.23;2.03;;;17.30;99.90;;;;;;4995636;28;20431;-73
2023/07/19 04:10:43;;;;;;;2.93;2.00;;;17.30;99.90;;;;;;4995678;28;20400;-72
2023/07/19 04:13:13;;;;;;;3.50;2.03;;;17.30;99.90;;;;;;4995548;28;20172;-73
2023/07/19 04:15:38;;;;;;;4.17;2.43;;;17.40;99.90;;;;;;4995228;28;20416;-73
2023/07/19 04:18:04;;;;;;;7.80;2.33;;;17.40;99.90;;;;;;4995462;28;20566;-73
2023/07/19 04:20:30;;;;;;;2.53;1.87;;;17.40;99.90;;;;;;4996528;28;20586;-73
2023/07/19 04:22:56;;;;;;;3.67;3.03;;;17.50;99.90;;;;;;4995076;28;20209;-73
2023/07/19 04:25:24;;;;;;;2.80;1.90;;;17.50;99.90;;;;;;4995497;28;20531;-73
2023/07/19 04:27:50;;;;;;;2.90;1.73;;;17.60;99.90;;;;;;4995241;28;20458;-73
2023/07/19 04:30:16;;;;;;;3.73;2.20;;;17.60;99.90;;;;;;4997174;28;20407;-74
2023/07/19 04:32:41;;;;;;;3.20;1.87;;;17.70;99.90;;;;;;4996388;28;20496;-74
2023/07/19 04:35:07;;;;;;;2.27;1.77;;;17.80;99.90;;;;;;4996112;28;20177;-73
2023/07/19 04:37:33;;;;;;;5.00;2.10;;;17.90;99.90;;;;;;4995320;28;20173;-73
2023/07/19 04:39:58;;;;;;;3.80;2.03;;;18.00;99.90;;;;;;4994078;28;20419;-74
2023/07/19 04:42:24;;;;;;;2.83;2.23;;;18.10;99.90;;;;;;4995665;28;20335;-74
2023/07/19 04:44:50;;;;;;;3.17;1.77;;;18.20;99.90;;;;;;4994945;28;20165;-73
2023/07/19 04:47:16;;;;;;;2.50;1.87;;;18.30;99.90;;;;;;4994768;28;20173;-74
2023/07/19 04:49:42;;;;;;;1.87;1.63;;;18.40;99.90;;;;;;4994890;28;20420;-74
2023/07/19 04:52:07;;;;;;;2.20;2.00;;;18.50;99.90;;;;;;4994880;28;20412;-73
2023/07/19 04:54:33;;;;;;;5.03;2.27;;;18.50;99.90;;;;;;4994871;28;20165;-73
2023/07/19 04:56:59;;;;;;;10.70;3.13;;;18.50;99.90;;;;;;4994412;28;20168;-73
2023/07/19 04:59:24;;;;;;;3.20;2.40;;;18.50;99.90;;;;;;4994361;28;20185;-73
2023/07/19 05:01:50;;;;;;;4.63;2.17;;;18.60;99.90;;;;;;4994295;28;20240;-74
2023/07/19 05:04:15;;;;;;;4.13;2.43;;;18.70;99.90;;;;;;4994669;28;20165;-73
2023/07/19 05:06:41;;;;;;;2.77;2.27;;;18.70;99.90;;;;;;4994278;28;20188;-73
2023/07/19 05:09:09;;;;;;;3.43;3.13;;;18.60;99.90;;;;;;4994490;28;20235;-73
2023/07/19 05:11:35;;;;;;;2.23;1.87;;;18.60;99.90;;;;;;4994560;28;20165;-73
2023/07/19 05:14:00;;;;;;;2.53;2.00;;;18.80;99.90;;;;;;4994504;28;20937;-73
2023/07/19 05:16:26;;;;;;;2.33;2.13;;;18.80;99.90;;;;;;4994106;28;20416;-73
2023/07/19 05:18:52;;;;;;;2.70;2.03;;;18.90;99.90;;;;;;4994749;28;20189;-73
2023/07/19 05:21:18;;;;;;;3.57;2.30;;;18.90;99.90;;;;;;4994306;28;20638;-73
2023/07/19 05:23:44;;;;;;;3.70;2.10;;;19.00;99.90;;;;;;4994397;28;20169;-73
2023/07/19 05:26:09;;;;;;;3.50;2.70;;;19.00;99.90;;;;;;4993986;28;20424;-73
2023/07/19 05:28:35;;;;;;;4.43;2.00;;;19.00;99.90;;;;;;4994234;28;20224;-73
2023/07/19 05:31:03;;;;;;;2.43;2.17;;;19.10;99.90;;;;;;4994098;28;20651;-73
2023/07/19 05:33:28;;;;;;;2.70;2.10;;;19.20;99.90;;;;;;4994204;28;20426;-73
2023/07/19 05:35:54;;;;;;;3.00;2.30;;;19.30;99.90;;;;;;4993843;28;20416;-74
2023/07/19 05:38:19;;;;;;;2.80;2.37;;;19.40;99.90;;;;;;4994198;28;20184;-73
2023/07/19 05:40:45;;;;;;;2.40;2.00;;;19.50;99.90;;;;;;4994504;28;20180;-73
2023/07/19 05:43:11;;;;;;;2.73;2.40;;;19.60;99.90;;;;;;4992974;28;20200;-73
2023/07/19 05:45:36;;;;;;;2.47;2.27;;;19.80;99.90;;;;;;4994217;28;20920;-72
2023/07/19 05:48:02;;;;;;;2.47;2.03;;;19.90;99.90;;;;;;4993869;28;20197;-73
2023/07/19 05:50:27;;;;;;;6.23;2.57;;;19.90;99.90;;;;;;4993895;28;20188;-73
2023/07/19 05:52:54;;;;;;;1.70;1.60;;;20.00;99.90;;;;;;4993657;28;20200;-73
2023/07/19 05:55:19;;;;;;;3.53;2.67;;;20.10;99.90;;;;;;4993545;28;20398;-74
2023/07/19 05:57:45;;;;;;;4.27;2.53;;;20.20;99.90;;;;;;4993582;28;20940;-74
2023/07/19 06:00:28;;;;;;;3.30;2.60;;;20.30;99.90;;;;;;4993676;28;20268;-74
2023/07/19 06:02:55;;;;;;;4.90;2.43;;;20.40;99.90;;;;;;4993527;28;20197;-73
2023/07/19 06:05:20;;;;;;;4.97;2.17;;;20.50;99.90;;;;;;4993201;28;20829;-73
2023/07/19 06:07:47;;;;;;;11.57;3.50;;;20.50;99.90;;;;;;4992119;28;20459;-74
2023/07/19 06:10:13;;;;;;;4.03;2.40;;;20.40;99.90;;;;;;4993007;28;20219;-74
2023/07/19 06:12:40;;;;;;;2.97;2.67;;;20.40;99.90;;;;;;4992766;28;20416;-73
2023/07/19 06:15:06;;;;;;;4.40;2.60;;;20.50;99.90;;;;;;4993027;28;20408;-73
2023/07/19 06:17:32;;;;;;;4.10;2.20;;;20.40;99.90;;;;;;4993222;28;20937;-73
2023/07/19 06:19:57;;;;;;;6.80;2.60;;;20.60;99.90;;;;;;4993201;28;20497;-73
2023/07/19 06:22:23;;;;;;;5.90;3.03;;;20.80;99.90;;;;;;4993093;28;20203;-73
2023/07/19 06:24:48;;;;;;;2.33;2.10;;;20.90;99.90;;;;;;4993578;28;20169;-73
2023/07/19 06:27:16;;;;;;;2.80;2.47;;;21.00;99.90;;;;;;4993610;28;20164;-70
2023/07/19 06:29:45;;;;;;;3.47;2.30;;;21.00;99.90;;;;;;4992566;28;20183;-72
2023/07/19 06:32:10;;;;;;;3.03;2.00;;;21.00;99.90;;;;;;4994356;28;20404;-71
2023/07/19 06:34:36;;;;;;;10.23;3.07;;;20.90;99.90;;;;;;4993099;28;20407;-70
2023/07/19 06:37:01;;;;;;;3.30;2.30;;;20.70;99.90;;;;;;4992623;28;20195;-71
2023/07/19 06:39:28;;;;;;;2.10;1.90;;;20.70;99.90;;;;;;4992709;28;20188;-70
2023/07/19 06:41:54;;;;;;;2.83;2.47;;;20.70;99.90;;;;;;4992522;28;20195;-71
2023/07/19 06:44:19;;;;;;;6.97;5.47;;;20.80;99.90;;;;;;4992737;28;20412;-71
2023/07/19 06:46:45;;;;;;;4.90;4.03;;;21.00;99.90;;;;;;4993179;28;20199;-72
2023/07/19 06:49:10;;;;;;;4.07;2.90;;;21.30;99.90;;;;;;4993130;28;20681;-71
2023/07/19 06:51:36;;;;;;;6.03;3.00;;;21.60;99.90;;;;;;4992738;28;20199;-71
2023/07/19 06:54:01;;;;;;;5.70;2.80;;;21.90;99.90;;;;;;4992689;28;20173;-71
2023/07/19 06:56:27;;;;;;;3.47;2.17;;;22.10;99.90;;;;;;4992379;28;20165;-70
2023/07/19 06:58:52;;;;;;;3.60;2.33;;;22.30;99.90;;;;;;4992517;28;20663;-71
2023/07/19 07:01:18;;;;;;;3.43;1.67;;;22.50;99.90;;;;;;4992558;28;20165;-70
2023/07/19 07:03:43;;;;;;;2.90;2.33;;;22.70;99.90;;;;;;4992656;28;20169;-71
2023/07/19 07:06:09;;;;;;;2.40;2.20;;;22.80;99.90;;;;;;4992287;28;20189;-71
2023/07/19 07:08:34;;;;;;;2.70;2.10;;;23.00;99.90;;;;;;4992666;28;20180;-71
2023/07/19 07:11:01;;;;;;;3.00;2.33;;;23.10;99.90;;;;;;4992705;28;20707;-71
2023/07/19 07:13:27;;;;;;;2.33;2.07;;;23.20;99.90;;;;;;4992589;28;20540;-71
2023/07/19 07:15:53;;;;;;;3.50;2.40;;;23.40;99.90;;;;;;4992329;28;20408;-71
2023/07/19 07:18:18;;;;;;;3.37;2.27;;;23.50;99.90;;;;;;4991311;28;20463;-71
2023/07/19 07:20:44;;;;;;;3.00;2.27;;;23.60;99.90;;;;;;4992482;28;20173;-71
2023/07/19 07:23:09;;;;;;;4.07;2.60;;;23.80;99.90;;;;;;4992599;28;20226;-71
2023/07/19 07:25:36;;;;;;;3.80;2.60;;;24.00;99.90;;;;;;4996356;28;20793;-71
2023/07/19 07:28:02;;;;;;;2.93;2.40;;;24.40;99.90;;;;;;4996390;28;20277;-71
2023/07/19 07:30:27;;;;;;;4.30;2.40;;;24.70;99.90;;;;;;4996474;28;20479;-72
2023/07/19 07:32:53;;;;;;;3.07;2.77;;;25.00;99.90;;;;;;4996408;28;20343;-72
2023/07/19 07:35:18;;;;;;;5.10;2.60;;;25.20;99.90;;;;;;4995862;28;20576;-72
2023/07/19 07:37:44;;;;;;;3.37;3.07;;;25.50;99.90;;;;;;4996340;28;20165;-73
2023/07/19 07:40:11;;;;;;;4.80;1.80;;;25.70;99.90;;;;;;4996323;28;20685;-71
2023/07/19 07:42:37;;;;;;;5.60;3.10;;;26.00;99.70;;;;;;4996137;28;20196;-71
2023/07/19 07:45:04;;;;;;;3.37;2.40;;;26.30;98.10;;;;;;4996249;28;20905;-71
2023/07/19 07:47:29;;;;;;;5.63;2.00;;;26.50;97.00;;;;;;4995960;28;20439;-71
2023/07/19 07:49:56;;;;;;;3.00;2.20;;;26.70;95.80;;;;;;4995928;28;20412;-71
2023/07/19 07:52:21;;;;;;;2.40;2.13;;;27.00;93.60;;;;;;4995880;28;20653;-70
2023/07/19 07:54:48;;;;;;;3.97;2.23;;;27.20;91.60;;;;;;4995743;28;20404;-71
2023/07/19 07:57:14;;;;;;;5.83;2.00;;;27.30;90.30;;;;;;4995551;28;20176;-72
2023/07/19 07:59:40;;;;;;;2.37;1.90;;;27.40;88.60;;;;;;4995735;28;20462;-72
2023/07/19 08:02:06;;;;;;;2.93;2.00;;;27.50;86.40;;;;;;4995723;28;20937;-70
2023/07/19 08:04:32;;;;;;;8.03;3.20;;;27.70;85.10;;;;;;4995813;28;20474;-72
2023/07/19 08:06:58;;;;;;;4.00;2.90;;;27.90;81.60;;;;;;4995410;28;20272;-71
2023/07/19 08:09:23;;;;;;;6.90;2.47;;;28.10;80.10;;;;;;4995564;28;20597;-71
2023/07/19 08:11:49;;;;;;;7.93;2.70;;;28.50;79.20;;;;;;4995669;28;20172;-72
2023/07/19 08:14:14;;;;;;;3.97;2.17;;;29.00;77.40;;;;;;4995592;28;20176;-71
2023/07/19 08:16:40;;;;;;;2.70;2.50;;;29.10;72.40;;;;;;4995340;28;20173;-71
2023/07/19 08:19:05;;;;;;;3.30;2.50;;;29.00;68.90;;;;;;4995453;28;20224;-72
2023/07/19 08:21:31;;;;;;;3.30;2.57;;;29.00;68.50;;;;;;4995747;28;20172;-72
2023/07/19 08:23:56;;;;;;;2.70;2.20;;;28.70;68.70;;;;;;4995630;28;20165;-72
2023/07/19 08:26:22;;;;;;;2.30;1.80;;;28.40;67.60;;;;;;4995077;28;20533;-71
2023/07/19 08:28:48;;;;;;;4.37;2.40;;;28.10;68.10;;;;;;4995308;28;20187;-69
2023/07/19 08:31:15;;;;;;;3.93;3.37;;;27.80;69.00;;;;;;4995282;28;20968;-72
2023/07/19 08:33:41;;;;;;;2.60;2.40;;;27.60;70.90;;;;;;4995161;28;20173;-70
2023/07/19 08:36:07;;;;;;;4.10;2.70;;;27.50;72.40;;;;;;4994247;28;20462;-70
2023/07/19 08:38:33;;;;;;;6.50;2.83;;;27.40;72.80;;;;;;4995104;28;20582;-70
2023/07/19 08:41:00;;;;;;;3.27;2.37;;;27.20;73.60;;;;;;4995195;28;20169;-70
2023/07/19 08:43:27;;;;;;;3.30;2.33;;;27.20;74.50;;;;;;4994942;28;20455;-70
2023/07/19 08:45:53;;;;;;;3.50;2.40;;;27.10;73.50;;;;;;4994704;28;20428;-70
2023/07/19 08:48:19;;;;;;;7.57;2.20;;;27.00;73.20;;;;;;4994876;28;20482;-72
2023/07/19 08:50:54;;;;;;;4.20;2.03;;;27.00;74.40;;;;;;4994908;28;20458;-71
2023/07/19 08:53:19;;;;;;;3.43;1.60;;;26.90;73.50;;;;;;4994974;28;20518;-70
2023/07/19 08:55:45;;;;;;;6.33;3.17;;;26.90;74.10;;;;;;4994577;28;20945;-71
2023/07/19 08:58:10;;;;;;;6.10;2.60;;;27.10;74.40;;;;;;4994789;28;20479;-70
2023/07/19 09:00:37;;;;;;;2.70;1.87;;;27.50;74.60;;;;;;4994782;28;20173;-70
2023/07/19 09:03:03;;;;;;;1.90;1.67;;;28.30;75.90;;;;;;4994733;28;20193;-70
2023/07/19 09:05:29;;;;;;;3.00;1.93;;;29.20;70.00;;;;;;4994511;28;20466;-70
2023/07/19 09:08:02;;;;;;;7.40;2.10;;;29.30;65.10;;;;;;4994489;28;20571;-70
2023/07/19 09:10:28;;;;;;;5.60;2.10;;;29.00;63.50;;;;;;4994562;28;20412;-70
2023/07/19 09:12:55;;;;;;;6.27;2.43;;;28.60;63.50;;;;;;4994457;28;20412;-70
2023/07/19 09:15:21;;;;;;;2.70;2.20;;;28.20;66.50;;;;;;4994234;28;20404;-70
2023/07/19 09:17:48;;;;;;;1.93;1.70;;;27.90;69.40;;;;;;4994324;28;20846;-70
2023/07/19 09:20:14;;;;;;;3.00;2.17;;;27.70;72.60;;;;;;4994579;28;20176;-70
2023/07/19 09:22:41;;;;;;;3.30;1.90;;;27.80;75.90;;;;;;4994346;28;20451;-70
2023/07/19 09:25:11;;;;;;;10.60;2.53;;;28.00;77.40;;;;;;4993727;28;20407;-70
2023/07/19 09:27:40;;;;;;;2.43;2.03;;;29.30;79.70;;;;;;4994205;28;20404;-71
2023/07/19 09:30:10;;;;;;;2.93;2.20;;;31.30;70.90;;;;;;4994216;28;20428;-71
2023/07/19 09:32:37;;;;;;;3.43;2.20;;;33.10;59.90;;;;;;4994142;28;20412;-70
2023/07/19 09:35:08;;;;;;;4.40;1.90;;;33.90;55.30;;;;;;4993833;28;20436;-71
2023/07/19 09:37:34;;;;;;;3.50;2.00;;;34.30;50.70;;;;;;4993932;28;20420;-71
2023/07/19 09:40:03;;;;;;;4.57;2.23;;;34.80;48.00;;;;;;4993954;28;20776;-71
2023/07/19 09:42:31;;;;;;;1.93;1.83;;;34.70;45.10;;;;;;4993874;28;20443;-70
2023/07/19 09:44:59;;;;;;;2.63;2.43;;;34.20;43.90;;;;;;4993684;28;20937;-70
2023/07/19 09:47:25;;;;;;;4.40;2.03;;;33.70;44.80;;;;;;4992833;28;20415;-70
2023/07/19 09:49:51;;;;;;;3.27;2.50;;;33.40;45.50;;;;;;4992582;28;20806;-70
2023/07/19 09:52:18;;;;;;;3.00;1.90;;;33.40;46.30;;;;;;4993828;28;20399;-70
2023/07/19 09:54:44;;;;;;;3.30;2.00;;;33.30;45.60;;;;;;4993629;28;20169;-70
2023/07/19 09:57:11;;;;;;;2.70;1.53;;;32.90;42.80;;;;;;4993518;28;20408;-70
2023/07/19 09:59:41;;;;;;;1.60;1.50;;;32.70;44.00;;;;;;4993587;28;20540;-70
2023/07/19 10:02:07;;;;;;;10.03;2.27;;;33.20;46.10;;;;;;4993598;28;20452;-71
2023/07/19 10:04:38;;;;;;;3.20;2.77;;;33.60;44.10;;;;;;4993532;28;20404;-71
2023/07/19 10:07:07;;;;;;;2.23;1.73;;;33.50;43.30;;;;;;4993224;28;20944;-72
2023/07/19 10:09:44;;;;;;;2.70;2.13;;;34.30;44.20;;;;;;5109761;27;20527;-70
2023/07/19 10:12:31;;;;;;;4.53;2.80;;;36.40;43.90;;;;;;5109908;28;20430;-70
2023/07/19 10:15:05;;;;;;;3.77;3.37;;;38.60;41.30;;;;;;5109734;28;20391;-72
2023/07/19 10:17:49;;;;;;;3.77;2.43;;;40.40;37.50;;;;;;5109778;28;20399;-70
2023/07/19 10:20:15;;;;;;;3.97;3.57;;;41.40;34.50;;;;;;5108353;28;20392;-71
2023/07/19 10:22:47;;;;;;;3.27;2.97;;;42.00;32.10;;;;;;5108398;28;20373;-71
2023/07/19 10:25:46;;;;;;;2.83;2.60;;;43.10;31.60;;;;;;5109360;28;20165;-71
2023/07/19 10:28:13;;;;;;;2.50;2.00;;;43.30;29.70;;;;;;5097256;28;20580;-70
2023/07/19 10:30:45;;;;;;;2.40;2.07;;;42.50;29.30;;;;;;5109634;28;20409;-70
2023/07/19 10:33:19;;;;;;;3.47;3.17;;;41.40;29.30;;;;;;5108248;28;20403;-70
2023/07/19 10:35:46;;;;;;;8.80;3.03;;;40.30;29.60;;;;;;5109115;28;20468;-71
2023/07/19 10:38:17;;;;;;;5.30;2.60;;;39.40;30.00;;;;;;5108212;28;20435;-72
2023/07/19 10:40:45;;;;;;;2.60;2.30;;;38.90;30.60;;;;;;5109260;28;20385;-71
2023/07/19 10:43:11;;;;;;;3.10;2.40;;;38.60;31.40;;;;;;5109371;28;20403;-70
2023/07/19 10:45:38;;;;;;;4.03;2.80;;;39.00;32.50;;;;;;5108982;28;20405;-71
2023/07/19 10:48:04;;;;;;;3.03;2.63;;;39.00;31.70;;;;;;5109115;28;20224;-70
2023/07/19 10:50:30;;;;;;;2.23;1.97;;;39.00;32.00;;;;;;5109140;28;20485;-70
2023/07/19 10:52:55;;;;;;;5.30;2.43;;;39.20;31.90;;;;;;5108865;28;20477;-70
2023/07/19 10:55:21;;;;;;;3.00;2.63;;;39.30;31.10;;;;;;5108745;28;20280;-70
2023/07/19 10:57:47;;;;;;;3.87;2.80;;;39.90;31.30;;;;;;5108873;28;20163;-71
2023/07/19 11:00:13;;;;;;;2.80;2.50;;;41.00;30.60;;;;;;5108989;28;20165;-71
2023/07/19 11:02:39;;;;;;;6.23;2.97;;;41.50;29.00;;;;;;5108902;28;20885;-71
2023/07/19 11:05:07;;;;;;;2.80;2.13;;;43.20;29.60;;;;;;5108717;28;20381;-71
2023/07/19 11:07:32;;;;;;;5.23;2.50;;;45.40;28.90;;;;;;5108519;28;20870;-70
2023/07/19 11:09:59;;;;;;;3.87;2.73;;;46.70;27.40;;;;;;5108853;28;20400;-71
2023/07/19 11:12:25;;;;;;;3.50;2.43;;;47.00;26.40;;;;;;5108802;28;20185;-71
2023/07/19 11:14:58;;;;;;;2.63;2.43;;;46.20;25.60;;;;;;5108612;28;20485;-74
2023/07/19 11:17:26;;;;;;;3.40;2.77;;;46.10;25.30;;;;;;5109080;28;20158;-70
2023/07/19 11:19:52;;;;;;;2.83;2.40;;;44.70;24.30;;;;;;5101593;28;20430;-70
2023/07/19 11:22:22;;;;;;;6.77;5.90;;;45.10;26.20;;;;;;5095087;28;20461;-71
2023/07/19 11:24:49;;;;;;;5.40;2.83;;;46.60;25.90;;;;;;5095252;28;20386;-70
2023/07/19 11:27:16;;;;;;;3.43;2.50;;;48.40;25.10;;;;;;5094741;28;20402;-72
2023/07/19 11:29:48;;;;;;;2.63;2.43;;;48.40;23.20;;;;;;5094852;28;20469;-70
2023/07/19 11:32:21;;;;;;;3.10;2.80;;;47.90;22.40;;;;;;5094922;28;20838;-71
2023/07/19 11:34:47;;;;;;;2.97;2.67;;;46.80;22.10;;;;;;5094780;28;20371;-70
2023/07/19 11:37:42;;;;;;;4.40;3.00;;;44.80;23.10;;;;;;5094580;28;20410;-70
2023/07/19 11:40:15;;;;;;;2.43;2.23;;;42.60;24.70;;;;;;5090135;28;20943;-71
2023/07/19 11:42:53;;;;;;;2.23;1.93;;;42.90;26.00;;;;;;5094958;28;20887;-70
2023/07/19 11:45:21;;;;;;;2.60;2.30;;;42.60;26.00;;;;;;5094245;28;20751;-70
2023/07/19 11:47:52;;;;;;;2.53;2.33;;;42.00;26.30;;;;;;5094239;28;20455;-70
2023/07/19 11:50:18;;;;;;;5.53;2.77;;;42.40;26.70;;;;;;5094453;28;20449;-71
2023/07/19 11:52:51;;;;;;;3.83;2.83;;;43.50;26.60;;;;;;5094340;28;20400;-71
2023/07/19 11:55:18;;;;;;;4.67;3.00;;;45.60;25.90;;;;;;5092816;28;20418;-71
2023/07/19 11:57:46;;;;;;;3.93;3.10;;;48.00;24.20;;;;;;5094116;28;20427;-70
2023/07/19 12:00:14;;;;;;;2.53;2.33;;;47.90;23.10;;;;;;5094169;28;20374;-71
2023/07/19 12:02:43;;;;;;;5.90;2.83;;;47.10;22.20;;;;;;5093975;28;20371;-71
2023/07/19 12:05:10;;;;;;;2.90;2.53;;;46.50;22.40;;;;;;5093589;28;20378;-71
2023/07/19 12:07:36;;;;;;;3.13;2.83;;;45.70;23.10;;;;;;5093448;28;20525;-71
2023/07/19 12:10:04;;;;;;;4.87;3.10;;;45.00;23.00;;;;;;5092842;28;20382;-71
2023/07/19 12:12:33;;;;;;;3.43;3.13;;;45.10;23.40;;;;;;5093983;28;20728;-71
2023/07/19 12:15:06;;;;;;;4.67;2.80;;;45.70;22.70;;;;;;5093822;28;20386;-71
2023/07/19 12:17:32;;;;;;;2.40;2.20;;;46.90;23.00;;;;;;5093834;28;20420;-71
2023/07/19 12:19:59;;;;;;;2.80;2.10;;;47.90;22.70;;;;;;5092625;28;20371;-71
2023/07/19 12:22:26;;;;;;;5.20;2.43;;;48.80;22.10;;;;;;5093864;28;20486;-72
2023/07/19 12:24:52;;;;;;;2.70;1.70;;;49.60;21.90;;;;;;5093782;28;20763;-71
2023/07/19 12:27:18;;;;;;;2.50;2.07;;;49.20;21.30;;;;;;5093504;28;20395;-70
2023/07/19 12:29:44;;;;;;;5.20;2.40;;;48.50;21.30;;;;;;5093654;28;20209;-71
2023/07/19 12:32:09;;;;;;;1.90;1.80;;;47.90;21.50;;;;;;5091357;28;20959;-71
2023/07/19 12:34:35;;;;;;;4.27;2.20;;;46.40;21.70;;;;;;5092344;28;20248;-71
2023/07/19 12:37:00;;;;;;;2.20;2.00;;;44.10;22.20;;;;;;5091940;28;20165;-70
2023/07/19 12:39:26;;;;;;;4.33;1.93;;;42.40;23.40;;;;;;5093370;28;20207;-70
2023/07/19 12:41:55;;;;;;;2.30;2.10;;;41.00;24.30;;;;;;5092073;28;20181;-71